Time;durP1;ratioP1;P1;durP2;ratioP2;P2;SDS_P1;SDS_P2;PMS_P1;PMS_P2;Temp;Humidity;BMP_temperature;BMP_pressure;BME280_temperature;BME280_humidity;BME280_pressure;Samples;Min_cycle;Max_cycle;Signal;HPM_P1;HPM_P2
2022/04/29 00:01:03;;;;;;;6.30;5.05;;;;;;;;;;7306401;19;140969;-75
2022/04/29 00:03:31;;;;;;;2.30;2.10;;;;;;;;;;7301774;19;142257;-75
2022/04/29 00:05:58;;;;;;;4.53;4.05;;;;;;;;;;7299289;19;142244;-75
2022/04/29 00:08:25;;;;;;;3.00;2.70;;;;;;;;;;7299120;19;140954;-75
2022/04/29 00:10:52;;;;;;;3.35;2.97;;;;;;;;;;7301424;19;141391;-75
2022/04/29 00:13:20;;;;;;;3.30;2.97;;;;;;;;;;7299794;19;140768;-75
2022/04/29 00:15:47;;;;;;;6.82;5.30;;;;;;;;;;7300789;19;142219;-76
2022/04/29 00:18:15;;;;;;;7.63;5.53;;;;;;;;;;7300621;19;141178;-76
2022/04/29 00:20:42;;;;;;;8.63;5.45;;;;;;;;;;7298297;19;141717;-75
2022/04/29 00:23:10;;;;;;;8.85;6.00;;;;;;;;;;7299657;19;141650;-75
2022/04/29 00:25:38;;;;;;;7.17;5.57;;;;;;;;;;7299872;19;141448;-75
2022/04/29 00:28:06;;;;;;;8.30;5.88;;;;;;;;;;7301434;19;140981;-76
2022/04/29 00:30:33;;;;;;;7.40;5.70;;;;;;;;;;7300686;19;140703;-75
2022/04/29 00:33:00;;;;;;;7.07;5.63;;;;;;;;;;7300517;19;141009;-75
2022/04/29 00:35:28;;;;;;;7.00;5.57;;;;;;;;;;7299959;19;142467;-75
2022/04/29 00:37:56;;;;;;;7.10;5.40;;;;;;;;;;7300535;19;140827;-75
2022/04/29 00:40:26;;;;;;;7.13;5.60;;;;;;;;;;7300281;19;141026;-76
2022/04/29 00:42:53;;;;;;;6.65;5.38;;;;;;;;;;7299100;19;141235;-75
2022/04/29 00:45:22;;;;;;;6.55;5.53;;;;;;;;;;7300376;19;140799;-75
2022/04/29 00:47:51;;;;;;;8.02;5.70;;;;;;;;;;7298558;19;140617;-75
2022/04/29 00:50:26;;;;;;;7.53;5.88;;;;;;;;;;7299226;19;140650;-75
2022/04/29 00:52:56;;;;;;;7.30;6.00;;;;;;;;;;7299344;19;140917;-75
2022/04/29 00:55:23;;;;;;;7.10;5.78;;;;;;;;;;7299894;19;142115;-75
2022/04/29 00:57:57;;;;;;;7.95;5.78;;;;;;;;;;7297915;19;140760;-75
2022/04/29 01:00:24;;;;;;;7.05;5.68;;;;;;;;;;7299176;19;140829;-75
2022/04/29 01:02:53;;;;;;;7.32;5.97;;;;;;;;;;7297265;19;141349;-74
2022/04/29 01:05:27;;;;;;;7.43;5.82;;;;;;;;;;7298855;19;141405;-75
2022/04/29 01:07:54;;;;;;;5.53;4.57;;;;;;;;;;7299447;19;141590;-75
2022/04/29 01:10:22;;;;;;;2.80;2.60;;;;;;;;;;7297870;19;140747;-76
2022/04/29 01:13:01;;;;;;;5.88;4.82;;;;;;;;;;7296766;19;141302;-75
2022/04/29 01:15:30;;;;;;;7.33;6.10;;;;;;;;;;7296903;19;141901;-75
2022/04/29 01:18:00;;;;;;;7.60;6.10;;;;;;;;;;7299436;19;140811;-75
2022/04/29 01:20:31;;;;;;;7.23;5.90;;;;;;;;;;7298295;19;140801;-75
2022/04/29 01:22:58;;;;;;;7.47;6.20;;;;;;;;;;7297922;19;142571;-75
2022/04/29 01:25:25;;;;;;;6.93;5.82;;;;;;;;;;7298519;19;140923;-75
2022/04/29 01:27:53;;;;;;;8.85;6.22;;;;;;;;;;7299283;19;140790;-75
2022/04/29 01:30:20;;;;;;;13.60;7.03;;;;;;;;;;7295117;19;140637;-75
2022/04/29 01:32:48;;;;;;;7.30;5.70;;;;;;;;;;7298404;19;142251;-74
2022/04/29 01:35:15;;;;;;;8.13;6.60;;;;;;;;;;7297832;19;141899;-75
2022/04/29 01:37:42;;;;;;;7.60;6.20;;;;;;;;;;7298152;19;141099;-75
2022/04/29 01:40:11;;;;;;;7.50;6.18;;;;;;;;;;7297797;19;140752;-75
2022/04/29 01:42:38;;;;;;;7.27;6.13;;;;;;;;;;7298755;19;141424;-75
2022/04/29 01:45:06;;;;;;;7.53;6.25;;;;;;;;;;7296768;19;141648;-76
2022/04/29 01:47:33;;;;;;;8.20;6.43;;;;;;;;;;7298043;19;140527;-75
2022/04/29 01:50:01;;;;;;;7.68;6.18;;;;;;;;;;7297208;19;140896;-75
2022/04/29 01:52:28;;;;;;;7.93;6.30;;;;;;;;;;7297811;19;141455;-75
2022/04/29 01:54:55;;;;;;;7.80;6.10;;;;;;;;;;7297326;19;142501;-75
2022/04/29 01:57:22;;;;;;;7.90;6.32;;;;;;;;;;7296184;19;140839;-75
2022/04/29 01:59:49;;;;;;;7.93;6.07;;;;;;;;;;7297233;19;141029;-75
2022/04/29 02:02:17;;;;;;;7.57;6.18;;;;;;;;;;7297311;19;141813;-75
2022/04/29 02:04:44;;;;;;;8.57;6.38;;;;;;;;;;7297106;19;142035;-75
2022/04/29 02:07:12;;;;;;;7.38;6.18;;;;;;;;;;7294582;19;141359;-75
2022/04/29 02:09:39;;;;;;;8.60;6.70;;;;;;;;;;7297830;19;140777;-75
2022/04/29 02:12:07;;;;;;;7.60;6.15;;;;;;;;;;7297173;19;142006;-75
2022/04/29 02:14:36;;;;;;;8.07;6.47;;;;;;;;;;7296741;19;141930;-75
2022/04/29 02:17:08;;;;;;;7.47;6.20;;;;;;;;;;7297840;19;140676;-75
2022/04/29 02:19:35;;;;;;;7.27;5.90;;;;;;;;;;7297150;19;140839;-75
2022/04/29 02:22:05;;;;;;;7.47;6.07;;;;;;;;;;7294384;19;141569;-75
2022/04/29 02:24:32;;;;;;;8.00;6.18;;;;;;;;;;7297079;19;141851;-75
2022/04/29 02:27:00;;;;;;;7.75;6.22;;;;;;;;;;7296908;19;140528;-75
2022/04/29 02:29:27;;;;;;;7.73;6.23;;;;;;;;;;7297153;19;140791;-75
2022/04/29 02:31:55;;;;;;;8.65;6.65;;;;;;;;;;7296554;19;141916;-75
2022/04/29 02:34:25;;;;;;;7.77;6.10;;;;;;;;;;7294844;19;142619;-75
2022/04/29 02:36:53;;;;;;;6.72;5.70;;;;;;;;;;7296074;19;140652;-75
2022/04/29 02:39:21;;;;;;;7.53;6.00;;;;;;;;;;7296816;19;140581;-75
2022/04/29 02:41:48;;;;;;;5.15;4.63;;;;;;;;;;7296426;19;141222;-75
2022/04/29 02:44:16;;;;;;;7.60;6.20;;;;;;;;;;7294465;19;142881;-75
2022/04/29 02:49:29;;;;;;;7.30;6.30;;;;;;;;;;7296105;19;140561;-75
2022/04/29 02:51:56;;;;;;;7.03;6.10;;;;;;;;;;7295585;19;141246;-75
2022/04/29 02:54:23;;;;;;;7.57;6.17;;;;;;;;;;7296216;19;142478;-75
2022/04/29 02:56:51;;;;;;;7.35;6.15;;;;;;;;;;7296220;19;140604;-75
2022/04/29 02:59:19;;;;;;;6.68;5.70;;;;;;;;;;7296627;19;141203;-75
2022/04/29 03:01:46;;;;;;;7.18;5.95;;;;;;;;;;7295731;19;141671;-75
2022/04/29 03:04:14;;;;;;;7.22;5.88;;;;;;;;;;7294203;19;140742;-75
2022/04/29 03:06:41;;;;;;;7.03;5.75;;;;;;;;;;7295153;19;141014;-75
2022/04/29 03:09:09;;;;;;;7.50;5.87;;;;;;;;;;7295481;19;141054;-75
2022/04/29 03:11:37;;;;;;;7.80;6.07;;;;;;;;;;7295061;19;141210;-75
2022/04/29 03:14:05;;;;;;;6.80;6.00;;;;;;;;;;7295840;19;142588;-75
2022/04/29 03:16:32;;;;;;;7.32;5.68;;;;;;;;;;7295416;19;140586;-75
2022/04/29 03:18:59;;;;;;;6.78;5.70;;;;;;;;;;7294836;19;140587;-75
2022/04/29 03:21:27;;;;;;;7.03;5.75;;;;;;;;;;7294678;19;142119;-75
2022/04/29 03:23:55;;;;;;;6.85;5.63;;;;;;;;;;7293456;19;142472;-75
2022/04/29 03:26:22;;;;;;;6.82;5.60;;;;;;;;;;7299630;19;140898;-75
2022/04/29 03:28:49;;;;;;;6.70;5.70;;;;;;;;;;7303251;19;140572;-75
2022/04/29 03:31:16;;;;;;;6.57;5.55;;;;;;;;;;7295824;19;141246;-75
2022/04/29 03:33:44;;;;;;;6.78;5.50;;;;;;;;;;7295474;19;143923;-75
2022/04/29 03:36:11;;;;;;;7.32;5.93;;;;;;;;;;7294342;19;140865;-75
2022/04/29 03:38:38;;;;;;;6.32;5.20;;;;;;;;;;7294789;19;140904;-75
2022/04/29 03:41:06;;;;;;;7.25;5.70;;;;;;;;;;7294530;19;141609;-75
2022/04/29 03:43:34;;;;;;;6.05;5.45;;;;;;;;;;7294479;19;140725;-75
2022/04/29 03:46:01;;;;;;;7.30;5.57;;;;;;;;;;7294526;19;141564;-75
2022/04/29 03:49:35;;;;;;;6.47;5.75;;;;;;;;;;7295107;19;141087;-74
2022/04/29 03:51:15;;;;;;;6.90;5.45;;;;;;;;;;7293734;19;140749;-75
2022/04/29 03:53:42;;;;;;;6.70;5.30;;;;;;;;;;7297922;19;142058;-74
2022/04/29 03:56:10;;;;;;;7.83;5.73;;;;;;;;;;7302458;19;141625;-74
2022/04/29 03:58:37;;;;;;;6.33;5.30;;;;;;;;;;7299524;19;140971;-74
2022/04/29 04:01:04;;;;;;;6.20;5.60;;;;;;;;;;7300647;19;142274;-75
2022/04/29 04:03:31;;;;;;;6.65;5.53;;;;;;;;;;7301366;19;142488;-82
2022/04/29 04:08:44;;;;;;;6.50;5.40;;;;;;;;;;7305514;19;140826;-81
2022/04/29 04:11:11;;;;;;;9.80;5.57;;;;;;;;;;7299992;19;140671;-80
2022/04/29 04:13:39;;;;;;;6.77;5.80;;;;;;;;;;7306331;19;141430;-78
2022/04/29 04:16:06;;;;;;;7.05;5.22;;;;;;;;;;7299731;19;140649;-78
2022/04/29 04:18:33;;;;;;;7.37;5.20;;;;;;;;;;7300337;19;141002;-79
2022/04/29 04:21:00;;;;;;;6.17;5.17;;;;;;;;;;7298856;19;141514;-78
2022/04/29 04:23:28;;;;;;;6.20;5.10;;;;;;;;;;7301645;19;141057;-78
2022/04/29 04:25:57;;;;;;;5.50;4.82;;;;;;;;;;7299326;19;140664;-79
2022/04/29 04:28:24;;;;;;;6.60;4.90;;;;;;;;;;7298330;19;140999;-78
2022/04/29 04:30:51;;;;;;;6.20;4.80;;;;;;;;;;7300071;19;142829;-82
2022/04/29 04:33:18;;;;;;;6.53;4.93;;;;;;;;;;7300056;19;141261;-81
2022/04/29 04:35:45;;;;;;;5.37;4.47;;;;;;;;;;7301364;19;140763;-79
2022/04/29 04:38:14;;;;;;;6.25;4.82;;;;;;;;;;7300135;19;140629;-76
2022/04/29 04:40:43;;;;;;;5.18;4.57;;;;;;;;;;7300559;19;141946;-77
2022/04/29 04:43:16;;;;;;;7.57;5.00;;;;;;;;;;7298148;19;142777;-77
2022/04/29 04:45:44;;;;;;;6.18;4.65;;;;;;;;;;7300616;19;140705;-79
2022/04/29 04:48:11;;;;;;;5.97;4.85;;;;;;;;;;7299311;19;140928;-78
2022/04/29 04:50:38;;;;;;;8.88;4.70;;;;;;;;;;7299303;19;141299;-79
2022/04/29 04:53:11;;;;;;;7.50;4.50;;;;;;;;;;7297535;19;142106;-76
2022/04/29 04:55:42;;;;;;;5.37;4.33;;;;;;;;;;7298442;19;141749;-74
2022/04/29 04:58:10;;;;;;;6.70;4.47;;;;;;;;;;7298811;19;140487;-79
2022/04/29 05:01:00;;;;;;;6.20;4.40;;;;;;;;;;7297905;19;141147;-75
2022/04/29 05:07:07;;;;;;;5.05;4.18;;;;;;;;;;7298728;19;140854;-74
2022/04/29 05:10:22;;;;;;;5.70;4.40;;;;;;;;;;7298246;19;141810;-77
2022/04/29 05:16:20;;;;;;;5.60;4.10;;;;;;;;;;7298356;19;141259;-75
2022/04/29 05:18:50;;;;;;;5.53;4.35;;;;;;;;;;7299992;19;140909;-75
2022/04/29 05:21:22;;;;;;;4.85;4.10;;;;;;;;;;7299175;19;140572;-75
2022/04/29 05:23:49;;;;;;;4.68;3.97;;;;;;;;;;7298759;19;141787;-75
2022/04/29 05:26:16;;;;;;;4.43;4.00;;;;;;;;;;7297926;19;141885;-75
2022/04/29 05:28:43;;;;;;;4.53;4.00;;;;;;;;;;7299535;19;141027;-75
2022/04/29 05:31:10;;;;;;;5.28;4.35;;;;;;;;;;7297824;19;141598;-75
2022/04/29 05:33:38;;;;;;;4.73;3.93;;;;;;;;;;7296361;19;142139;-75
2022/04/29 05:36:07;;;;;;;4.60;3.65;;;;;;;;;;7298018;19;141652;-76
2022/04/29 05:44:15;;;;;;;4.17;3.60;;;;;;;;;;7297853;19;141223;-80
2022/04/29 05:46:43;;;;;;;4.00;3.53;;;;;;;;;;7298223;19;140770;-77
2022/04/29 05:49:10;;;;;;;4.90;3.75;;;;;;;;;;7298255;19;140709;-78
2022/04/29 05:51:37;;;;;;;4.10;3.47;;;;;;;;;;7296845;19;141053;-77
2022/04/29 05:54:05;;;;;;;4.22;3.65;;;;;;;;;;7298207;19;140674;-78
2022/04/29 05:56:31;;;;;;;4.78;3.67;;;;;;;;;;7295979;19;142662;-77
2022/04/29 05:58:59;;;;;;;4.10;3.45;;;;;;;;;;7297457;19;140568;-77
2022/04/29 06:01:26;;;;;;;3.93;3.50;;;;;;;;;;7297463;19;140836;-77
2022/04/29 06:03:53;;;;;;;4.20;3.43;;;;;;;;;;7297230;19;142169;-77
2022/04/29 06:06:20;;;;;;;3.42;3.13;;;;;;;;;;7296658;19;141857;-78
2022/04/29 06:08:50;;;;;;;3.93;3.53;;;;;;;;;;7297202;19;140559;-77
2022/04/29 06:11:17;;;;;;;3.70;3.30;;;;;;;;;;7298408;19;140910;-77
2022/04/29 06:13:45;;;;;;;3.50;3.13;;;;;;;;;;7297104;19;141842;-77
2022/04/29 06:16:12;;;;;;;3.60;3.22;;;;;;;;;;7296456;19;142072;-77
2022/04/29 06:18:39;;;;;;;3.67;3.28;;;;;;;;;;7298050;19;140705;-77
2022/04/29 06:21:06;;;;;;;3.92;3.10;;;;;;;;;;7297362;19;140798;-77
2022/04/29 06:23:33;;;;;;;3.65;3.22;;;;;;;;;;7297115;19;141311;-77
2022/04/29 06:26:00;;;;;;;3.30;2.88;;;;;;;;;;7297342;19;142469;-77
2022/04/29 06:28:28;;;;;;;3.40;3.10;;;;;;;;;;7296900;19;140846;-77
2022/04/29 06:30:55;;;;;;;4.17;3.17;;;;;;;;;;7296074;19;141060;-77
2022/04/29 06:33:22;;;;;;;3.13;2.78;;;;;;;;;;7296815;19;141720;-79
2022/04/29 06:35:50;;;;;;;3.30;3.00;;;;;;;;;;7295211;19;143022;-78
2022/04/29 06:38:18;;;;;;;3.50;3.20;;;;;;;;;;7294841;19;140784;-78
2022/04/29 06:40:45;;;;;;;3.10;2.80;;;;;;;;;;7295986;19;141042;-78
2022/04/29 06:43:12;;;;;;;3.10;2.80;;;;;;;;;;7296717;19;140996;-78
2022/04/29 06:45:40;;;;;;;2.97;2.75;;;;;;;;;;7296228;19;142218;-78
2022/04/29 06:48:07;;;;;;;3.13;2.83;;;;;;;;;;7295796;19;140726;-78
2022/04/29 06:50:35;;;;;;;3.20;2.90;;;;;;;;;;7294652;19;140714;-78
2022/04/29 06:53:02;;;;;;;3.00;2.78;;;;;;;;;;7295564;19;141157;-78
2022/04/29 06:55:30;;;;;;;3.00;2.70;;;;;;;;;;7295423;19;142078;-78
2022/04/29 06:57:57;;;;;;;3.30;2.80;;;;;;;;;;7296713;19;140597;-78
2022/04/29 07:00:24;;;;;;;3.13;2.83;;;;;;;;;;7296373;19;140652;-78
2022/04/29 07:02:52;;;;;;;3.15;2.72;;;;;;;;;;7294941;19;140528;-78
2022/04/29 07:05:19;;;;;;;2.80;2.60;;;;;;;;;;7295257;19;141515;-78
2022/04/29 07:07:49;;;;;;;2.80;2.60;;;;;;;;;;7293276;19;140776;-78
2022/04/29 07:10:16;;;;;;;3.10;2.75;;;;;;;;;;7295590;19;141155;-78
2022/04/29 07:12:46;;;;;;;2.83;2.63;;;;;;;;;;7295273;19;142469;-78
2022/04/29 07:15:14;;;;;;;2.70;2.50;;;;;;;;;;7293538;19;142299;-77
2022/04/29 07:17:44;;;;;;;2.97;2.67;;;;;;;;;;7293543;19;141311;-78
2022/04/29 07:20:12;;;;;;;2.60;2.40;;;;;;;;;;7295288;19;140926;-78
2022/04/29 07:22:41;;;;;;;2.88;2.50;;;;;;;;;;7293246;19;140773;-78
2022/04/29 07:25:10;;;;;;;2.90;2.60;;;;;;;;;;7295323;19;141414;-78
2022/04/29 07:27:39;;;;;;;2.97;2.50;;;;;;;;;;7296157;19;140495;-78
2022/04/29 07:30:08;;;;;;;2.80;2.60;;;;;;;;;;7302358;19;141185;-79
2022/04/29 07:32:35;;;;;;;2.63;2.42;;;;;;;;;;7300748;19;140656;-78
2022/04/29 07:43:22;;;;;;;2.50;2.30;;;;;;;;;;7302379;19;140674;-79
2022/04/29 07:45:51;;;;;;;2.70;2.50;;;;;;;;;;7300056;19;142722;-79
2022/04/29 07:48:18;;;;;;;2.50;2.30;;;;;;;;;;7302623;19;141128;-78
2022/04/29 07:50:46;;;;;;;2.97;2.78;;;;;;;;;;7302016;19;141334;-78
2022/04/29 07:53:13;;;;;;;2.70;2.50;;;;;;;;;;7300829;19;141915;-78
2022/04/29 07:55:41;;;;;;;2.78;2.50;;;;;;;;;;7301643;19;140700;-78
2022/04/29 07:58:09;;;;;;;2.53;2.33;;;;;;;;;;7301615;19;141224;-79
2022/04/29 08:00:39;;;;;;;2.70;2.50;;;;;;;;;;7302032;19;140618;-79
2022/04/29 08:03:26;;;;;;;2.60;2.40;;;;;;;;;;7300800;19;143764;-79
2022/04/29 08:05:54;;;;;;;2.63;2.43;;;;;;;;;;7306715;19;140914;-79
2022/04/29 08:08:21;;;;;;;2.67;2.47;;;;;;;;;;7305604;19;140616;-78
2022/04/29 08:10:49;;;;;;;2.67;2.47;;;;;;;;;;7311468;19;140597;-78
2022/04/29 08:13:17;;;;;;;2.97;2.67;;;;;;;;;;7305965;19;141247;-78
2022/04/29 08:15:47;;;;;;;3.30;2.40;;;;;;;;;;7302664;19;141158;-78
2022/04/29 08:18:14;;;;;;;2.88;2.67;;;;;;;;;;7302741;19;141706;-78
2022/04/29 08:20:41;;;;;;;2.80;2.60;;;;;;;;;;7301337;19;140619;-79
2022/04/29 08:23:09;;;;;;;2.70;2.50;;;;;;;;;;7299168;19;141282;-78
2022/04/29 08:25:36;;;;;;;2.70;2.50;;;;;;;;;;7300313;19;142835;-78
2022/04/29 08:28:04;;;;;;;2.70;2.50;;;;;;;;;;7298708;19;140649;-78
2022/04/29 08:30:31;;;;;;;3.17;2.72;;;;;;;;;;7300927;19;140849;-78
2022/04/29 08:32:59;;;;;;;2.60;2.40;;;;;;;;;;7300431;19;140595;-79
2022/04/29 08:35:27;;;;;;;2.70;2.50;;;;;;;;;;7298677;19;141914;-79
2022/04/29 08:37:56;;;;;;;2.80;2.53;;;;;;;;;;7299148;19;140681;-78
2022/04/29 08:40:25;;;;;;;2.80;2.60;;;;;;;;;;7300218;19;140705;-78
2022/04/29 08:42:53;;;;;;;2.70;2.50;;;;;;;;;;7299583;19;142109;-78
2022/04/29 08:45:21;;;;;;;2.60;2.40;;;;;;;;;;7300363;19;143076;-79
2022/04/29 08:47:48;;;;;;;2.83;2.53;;;;;;;;;;7299567;19;140842;-78
2022/04/29 08:50:20;;;;;;;2.75;2.47;;;;;;;;;;7299827;19;141159;-79
2022/04/29 08:52:50;;;;;;;2.85;2.65;;;;;;;;;;7299285;19;141872;-78
2022/04/29 09:00:50;;;;;;;2.80;2.60;;;;;;;;;;7299633;19;140836;-77
2022/04/29 09:03:21;;;;;;;3.03;2.70;;;;;;;;;;7299026;19;141947;-77
2022/04/29 09:05:51;;;;;;;3.10;2.60;;;;;;;;;;7297804;19;142718;-77
2022/04/29 09:08:23;;;;;;;2.80;2.60;;;;;;;;;;7297910;19;140968;-77
2022/04/29 09:10:58;;;;;;;2.80;2.53;;;;;;;;;;7299124;19;140849;-77
2022/04/29 09:13:31;;;;;;;2.92;2.63;;;;;;;;;;7297517;19;142224;-77
2022/04/29 09:16:04;;;;;;;2.80;2.60;;;;;;;;;;7298417;19;142863;-78
2022/04/29 09:18:53;;;;;;;2.90;2.70;;;;;;;;;;7299433;19;140733;-77
2022/04/29 09:21:26;;;;;;;3.03;2.63;;;;;;;;;;7299491;19;141328;-78
2022/04/29 09:23:56;;;;;;;2.90;2.60;;;;;;;;;;7297787;19;141905;-77
2022/04/29 09:26:27;;;;;;;3.05;2.75;;;;;;;;;;7296564;19;141880;-77
2022/04/29 09:29:15;;;;;;;3.03;2.72;;;;;;;;;;7299065;19;140561;-77
2022/04/29 09:32:01;;;;;;;3.60;2.70;;;;;;;;;;7298648;19;140696;-77
2022/04/29 09:34:53;;;;;;;3.37;2.80;;;;;;;;;;7298396;19;140655;-77
2022/04/29 09:37:22;;;;;;;3.00;2.70;;;;;;;;;;7296528;19;142135;-77
2022/04/29 09:39:55;;;;;;;2.75;2.55;;;;;;;;;;7298652;19;140594;-77
2022/04/29 09:42:35;;;;;;;2.80;2.50;;;;;;;;;;7298965;19;140626;-77
2022/04/29 09:45:17;;;;;;;3.10;2.63;;;;;;;;;;7297854;19;141950;-77
2022/04/29 09:47:44;;;;;;;2.85;2.60;;;;;;;;;;7296673;19;142575;-77
2022/04/29 09:50:11;;;;;;;3.05;2.72;;;;;;;;;;7296549;19;141054;-77
2022/04/29 09:52:44;;;;;;;2.80;2.60;;;;;;;;;;7296130;19;140962;-77
2022/04/29 09:55:14;;;;;;;3.13;2.78;;;;;;;;;;7297778;19;141362;-77
2022/04/29 09:57:59;;;;;;;3.03;2.72;;;;;;;;;;7297405;19;142795;-77
2022/04/29 10:00:27;;;;;;;3.17;2.88;;;;;;;;;;7298669;19;140607;-77
2022/04/29 10:02:55;;;;;;;3.05;2.75;;;;;;;;;;7298320;19;140693;-78
2022/04/29 10:05:23;;;;;;;3.00;2.70;;;;;;;;;;7297030;19;141025;-78
2022/04/29 10:07:54;;;;;;;3.00;2.70;;;;;;;;;;7297011;19;141482;-74
2022/04/29 10:10:24;;;;;;;3.10;2.80;;;;;;;;;;7298367;19;141092;-76
2022/04/29 10:12:52;;;;;;;3.00;2.70;;;;;;;;;;7297370;19;141611;-78
2022/04/29 10:15:20;;;;;;;3.10;2.80;;;;;;;;;;7295754;19;141302;-77
2022/04/29 10:23:26;;;;;;;3.30;3.00;;;;;;;;;;7296584;19;140767;-77
2022/04/29 10:25:55;;;;;;;3.05;2.75;;;;;;;;;;7296900;19;142087;-77
2022/04/29 10:28:25;;;;;;;3.50;3.00;;;;;;;;;;7297247;19;141546;-76
2022/04/29 10:31:00;;;;;;;3.22;2.92;;;;;;;;;;7297060;19;140935;-77
2022/04/29 10:33:28;;;;;;;3.22;2.90;;;;;;;;;;7297221;19;140901;-76
2022/04/29 10:36:08;;;;;;;3.58;3.08;;;;;;;;;;7297136;19;141265;-76
2022/04/29 10:38:40;;;;;;;3.33;2.87;;;;;;;;;;7297175;19;141028;-77
2022/04/29 10:41:15;;;;;;;3.27;2.87;;;;;;;;;;7294289;19;140605;-76
2022/04/29 10:43:50;;;;;;;3.67;3.00;;;;;;;;;;7297175;19;142005;-78
2022/04/29 10:46:37;;;;;;;3.25;2.80;;;;;;;;;;7299198;19;141337;-75
2022/04/29 10:49:22;;;;;;;3.17;2.88;;;;;;;;;;7295547;19;142120;-78
2022/04/29 10:51:56;;;;;;;3.50;2.90;;;;;;;;;;7295160;19;141429;-77
2022/04/29 10:54:41;;;;;;;3.50;2.90;;;;;;;;;;7295849;19;140634;-75
2022/04/29 10:57:12;;;;;;;2.97;2.67;;;;;;;;;;7296115;19;141993;-76
2022/04/29 11:00:00;;;;;;;3.00;2.70;;;;;;;;;;7294577;19;140891;-75
2022/04/29 11:02:35;;;;;;;3.30;2.83;;;;;;;;;;7295782;19;140806;-76
2022/04/29 11:05:03;;;;;;;3.20;2.72;;;;;;;;;;7301845;19;140649;-79
2022/04/29 11:07:35;;;;;;;3.33;2.80;;;;;;;;;;7302329;19;140951;-79
2022/04/29 11:10:05;;;;;;;3.50;2.73;;;;;;;;;;7302167;19;141217;-78
2022/04/29 11:12:37;;;;;;;2.80;2.60;;;;;;;;;;7302348;19;141329;-80
2022/04/29 11:15:05;;;;;;;3.95;3.10;;;;;;;;;;7303204;19;141056;-80
2022/04/29 11:17:36;;;;;;;2.80;2.60;;;;;;;;;;7302900;19;140638;-78
2022/04/29 11:20:15;;;;;;;3.20;2.90;;;;;;;;;;7302464;19;141812;-76
2022/04/29 11:26:00;;;;;;;3.17;2.80;;;;;;;;;;7302742;19;140803;-78
2022/04/29 11:28:34;;;;;;;3.58;3.10;;;;;;;;;;7302487;19;141137;-79
2022/04/29 11:31:06;;;;;;;3.60;2.90;;;;;;;;;;7302885;19;141972;-78
2022/04/29 11:33:35;;;;;;;3.30;2.95;;;;;;;;;;7302846;19;140844;-76
2022/04/29 11:36:05;;;;;;;3.83;3.00;;;;;;;;;;7301997;19;140867;-75
2022/04/29 11:38:45;;;;;;;3.60;3.27;;;;;;;;;;7301866;19;141669;-79
2022/04/29 11:41:20;;;;;;;3.30;3.00;;;;;;;;;;7301958;19;141758;-78
2022/04/29 11:43:50;;;;;;;4.45;3.20;;;;;;;;;;7304384;19;141646;-78
2022/04/29 11:46:20;;;;;;;3.65;3.03;;;;;;;;;;7302876;19;140714;-78
2022/04/29 11:48:58;;;;;;;4.40;3.20;;;;;;;;;;7301333;19;141797;-79
2022/04/29 11:51:27;;;;;;;4.90;3.58;;;;;;;;;;7307633;19;142795;-78
2022/04/29 11:54:03;;;;;;;4.20;3.13;;;;;;;;;;7305982;19;140936;-79
2022/04/29 11:56:35;;;;;;;4.20;3.17;;;;;;;;;;7299958;19;140625;-79
2022/04/29 11:59:07;;;;;;;4.57;3.25;;;;;;;;;;7306594;19;140990;-79
2022/04/29 12:01:35;;;;;;;3.58;3.10;;;;;;;;;;7302396;19;141062;-79
2022/04/29 12:04:05;;;;;;;4.05;3.33;;;;;;;;;;7301340;19;140770;-79
2022/04/29 12:06:32;;;;;;;3.80;3.27;;;;;;;;;;7299982;19;140671;-80
2022/04/29 12:08:59;;;;;;;3.88;3.20;;;;;;;;;;7299809;19;141276;-76
2022/04/29 12:11:30;;;;;;;3.50;3.15;;;;;;;;;;7299065;19;142697;-76
2022/04/29 12:14:16;;;;;;;3.78;3.35;;;;;;;;;;7300137;19;141173;-76
2022/04/29 12:16:47;;;;;;;3.47;3.15;;;;;;;;;;7300866;19;140677;-76
2022/04/29 12:19:17;;;;;;;3.50;3.20;;;;;;;;;;7298594;19;141804;-77
2022/04/29 12:21:58;;;;;;;3.85;3.40;;;;;;;;;;7301306;19;141577;-77
2022/04/29 12:24:25;;;;;;;3.85;3.08;;;;;;;;;;7299687;19;141811;-76
2022/04/29 12:27:06;;;;;;;3.30;2.90;;;;;;;;;;7301222;19;141536;-78
2022/04/29 12:29:36;;;;;;;3.97;3.28;;;;;;;;;;7300191;19;141989;-79
2022/04/29 12:35:15;;;;;;;3.85;3.30;;;;;;;;;;7300732;19;140773;-75
2022/04/29 12:37:54;;;;;;;3.65;3.28;;;;;;;;;;7300550;19;140884;-77
2022/04/29 12:40:41;;;;;;;3.63;3.17;;;;;;;;;;7299124;19;143991;-77
2022/04/29 12:43:13;;;;;;;3.88;3.28;;;;;;;;;;7300480;19;140863;-76
2022/04/29 12:45:41;;;;;;;3.40;3.10;;;;;;;;;;7299962;19;141015;-76
2022/04/29 12:48:14;;;;;;;4.03;3.05;;;;;;;;;;7298753;19;140813;-74
2022/04/29 12:50:45;;;;;;;3.97;3.40;;;;;;;;;;7300124;19;141989;-76
2022/04/29 12:53:15;;;;;;;3.42;3.00;;;;;;;;;;7299386;19;140989;-76
2022/04/29 12:55:42;;;;;;;4.28;3.30;;;;;;;;;;7300028;19;140839;-76
2022/04/29 12:58:12;;;;;;;4.32;3.40;;;;;;;;;;7300590;19;140700;-76
2022/04/29 13:00:41;;;;;;;3.70;3.30;;;;;;;;;;7299372;19;141784;-77
2022/04/29 13:03:09;;;;;;;4.10;3.40;;;;;;;;;;7298440;19;141739;-76
2022/04/29 13:05:37;;;;;;;4.30;3.53;;;;;;;;;;7299990;19;141372;-77
2022/04/29 13:08:07;;;;;;;4.38;3.40;;;;;;;;;;7298653;19;142516;-77
2022/04/29 13:10:51;;;;;;;4.27;3.47;;;;;;;;;;7298886;19;141056;-76
2022/04/29 13:13:20;;;;;;;3.70;3.23;;;;;;;;;;7297087;19;142170;-77
2022/04/29 13:15:48;;;;;;;3.72;3.17;;;;;;;;;;7299532;19;140686;-78
2022/04/29 13:18:17;;;;;;;3.63;3.33;;;;;;;;;;7298830;19;140710;-77
2022/04/29 13:20:45;;;;;;;3.95;3.40;;;;;;;;;;7298422;19;141419;-76
2022/04/29 13:23:13;;;;;;;3.72;3.42;;;;;;;;;;7299213;19;140775;-76
2022/04/29 13:25:41;;;;;;;3.50;3.20;;;;;;;;;;7296657;19;140636;-77
2022/04/29 13:28:10;;;;;;;3.80;3.20;;;;;;;;;;7298915;19;140865;-79
2022/04/29 13:30:45;;;;;;;3.55;3.22;;;;;;;;;;7299133;19;142025;-86
2022/04/29 13:33:12;;;;;;;4.13;3.40;;;;;;;;;;7299615;19;142867;-78
2022/04/29 13:35:39;;;;;;;3.70;3.30;;;;;;;;;;7298712;19;140778;-81
2022/04/29 13:38:08;;;;;;;3.33;3.03;;;;;;;;;;7297600;19;140966;-81
2022/04/29 13:40:35;;;;;;;3.70;3.40;;;;;;;;;;7300176;19;141032;-82
2022/04/29 13:43:04;;;;;;;4.45;3.55;;;;;;;;;;7297973;19;143972;-81
2022/04/29 13:45:32;;;;;;;4.00;3.40;;;;;;;;;;7298987;19;141635;-81
2022/04/29 13:48:00;;;;;;;4.13;3.60;;;;;;;;;;7298915;19;140967;-81
2022/04/29 13:50:27;;;;;;;3.67;3.30;;;;;;;;;;7296193;19;141805;-82
2022/04/29 13:53:12;;;;;;;3.88;3.47;;;;;;;;;;7296717;19;143001;-82
2022/04/29 13:55:50;;;;;;;4.05;3.45;;;;;;;;;;7298005;19;141425;-77
2022/04/29 13:58:18;;;;;;;3.92;3.50;;;;;;;;;;7296010;19;140742;-77
2022/04/29 14:00:47;;;;;;;4.30;3.60;;;;;;;;;;7298030;19;140709;-79
2022/04/29 14:03:16;;;;;;;3.90;3.50;;;;;;;;;;7297679;19;141644;-78
2022/04/29 14:05:44;;;;;;;4.10;3.70;;;;;;;;;;7297071;19;141139;-78
2022/04/29 14:08:12;;;;;;;3.97;3.50;;;;;;;;;;7297029;19;140871;-77
2022/04/29 14:10:39;;;;;;;3.70;3.38;;;;;;;;;;7296661;19;141205;-77
2022/04/29 14:13:10;;;;;;;3.90;3.50;;;;;;;;;;7296063;19;142499;-79
2022/04/29 14:15:40;;;;;;;3.70;3.40;;;;;;;;;;7296558;19;140752;-78
2022/04/29 14:18:09;;;;;;;4.32;3.50;;;;;;;;;;7297247;19;140730;-76
2022/04/29 14:20:36;;;;;;;3.70;3.40;;;;;;;;;;7295784;19;141934;-76
2022/04/29 14:23:04;;;;;;;4.05;3.60;;;;;;;;;;7296626;19;141901;-78
2022/04/29 14:25:34;;;;;;;3.95;3.55;;;;;;;;;;7296245;19;140719;-76
2022/04/29 14:28:02;;;;;;;4.10;3.70;;;;;;;;;;7297193;19;140593;-76
2022/04/29 14:30:30;;;;;;;4.40;3.70;;;;;;;;;;7296101;19;140967;-80
2022/04/29 14:32:57;;;;;;;5.55;3.80;;;;;;;;;;7296306;19;140865;-79
2022/04/29 14:35:24;;;;;;;3.93;3.53;;;;;;;;;;7297815;19;141508;-78
2022/04/29 14:37:52;;;;;;;3.80;3.40;;;;;;;;;;7295258;19;140956;-80
2022/04/29 14:40:19;;;;;;;4.18;3.60;;;;;;;;;;7296232;19;142347;-79
2022/04/29 14:42:51;;;;;;;4.15;3.70;;;;;;;;;;7295096;19;142485;-82
2022/04/29 14:45:33;;;;;;;4.00;3.60;;;;;;;;;;7295670;19;140778;-90
2022/04/29 14:48:00;;;;;;;3.70;3.27;;;;;;;;;;7296156;19;141344;-84
2022/04/29 14:53:41;;;;;;;6.80;4.47;;;;;;;;;;7295246;19;145241;-84
2022/04/29 14:56:14;;;;;;;7.43;4.30;;;;;;;;;;7296507;19;140543;-84
2022/04/29 14:58:42;;;;;;;6.60;4.32;;;;;;;;;;7294973;19;140863;-82
2022/04/29 15:01:09;;;;;;;5.93;3.95;;;;;;;;;;7294822;19;141491;-84
2022/04/29 15:03:37;;;;;;;7.10;4.10;;;;;;;;;;7294995;19;141190;-83
2022/04/29 15:06:10;;;;;;;6.60;4.18;;;;;;;;;;7294951;19;141468;-84
2022/04/29 15:08:37;;;;;;;4.80;4.22;;;;;;;;;;7296430;19;140629;-79
2022/04/29 15:15:34;;;;;;;6.40;4.18;;;;;;;;;;7295657;19;142709;-78
2022/04/29 15:16:37;;;;;;;7.82;4.40;;;;;;;;;;7296446;19;140733;-79
2022/04/29 15:19:04;;;;;;;6.20;3.90;;;;;;;;;;7296081;19;140862;-79
2022/04/29 15:21:31;;;;;;;7.45;4.38;;;;;;;;;;7295436;19;141479;-79
2022/04/29 15:23:58;;;;;;;4.70;4.18;;;;;;;;;;7293175;19;141942;-78
2022/04/29 15:26:26;;;;;;;4.40;4.00;;;;;;;;;;7293339;19;140861;-78
2022/04/29 15:28:53;;;;;;;6.30;3.90;;;;;;;;;;7295785;19;140609;-78
2022/04/29 15:31:20;;;;;;;4.67;3.97;;;;;;;;;;7295489;19;141909;-79
2022/04/29 15:33:47;;;;;;;6.45;3.97;;;;;;;;;;7294845;19;143307;-78
2022/04/29 15:36:14;;;;;;;6.00;4.22;;;;;;;;;;7295446;19;140618;-79